sensor_id;sensor_type;location;lat;lon;timestamp;temperature;humidity
51867;DHT22;52862;52.504;13.480;2024-03-08T00:02:12;3.40;99.90
51867;DHT22;52862;52.504;13.480;2024-03-08T00:04:39;3.40;99.90
51867;DHT22;52862;52.504;13.480;2024-03-08T00:07:05;3.30;99.90
51867;DHT22;52862;52.504;13.480;2024-03-08T00:09:32;3.40;99.90
51867;DHT22;52862;52.504;13.480;2024-03-08T00:11:59;3.10;99.90
51867;DHT22;52862;52.504;13.480;2024-03-08T00:14:26;3.20;99.90
51867;DHT22;52862;52.504;13.480;2024-03-08T00:16:53;3.10;99.90
51867;DHT22;52862;52.504;13.480;2024-03-08T00:19:20;5.30;99.90
51867;DHT22;52862;52.504;13.480;2024-03-08T00:21:46;3.10;99.90
51867;DHT22;52862;52.504;13.480;2024-03-08T00:24:13;3.00;99.90
51867;DHT22;52862;52.504;13.480;2024-03-08T00:26:40;3.10;99.90
51867;DHT22;52862;52.504;13.480;2024-03-08T00:29:08;2.80;99.90
51867;DHT22;52862;52.504;13.480;2024-03-08T00:31:35;3.30;99.90
51867;DHT22;52862;52.504;13.480;2024-03-08T00:34:01;3.00;99.90
51867;DHT22;52862;52.504;13.480;2024-03-08T00:36:28;3.10;99.90
51867;DHT22;52862;52.504;13.480;2024-03-08T00:38:56;3.00;99.90
51867;DHT22;52862;52.504;13.480;2024-03-08T00:41:22;3.10;99.90
51867;DHT22;52862;52.504;13.480;2024-03-08T00:43:49;3.10;99.90
51867;DHT22;52862;52.504;13.480;2024-03-08T00:46:17;3.10;99.90
51867;DHT22;52862;52.504;13.480;2024-03-08T00:48:43;3.10;99.90
51867;DHT22;52862;52.504;13.480;2024-03-08T00:51:10;4.20;99.90
51867;DHT22;52862;52.504;13.480;2024-03-08T00:53:37;3.10;99.90
51867;DHT22;52862;52.504;13.480;2024-03-08T00:56:04;3.10;99.90
51867;DHT22;52862;52.504;13.480;2024-03-08T00:58:30;3.00;99.90
51867;DHT22;52862;52.504;13.480;2024-03-08T01:00:57;2.90;99.90
51867;DHT22;52862;52.504;13.480;2024-03-08T01:03:24;3.00;99.90
51867;DHT22;52862;52.504;13.480;2024-03-08T01:05:51;3.00;99.90
51867;DHT22;52862;52.504;13.480;2024-03-08T01:08:17;3.00;99.90
51867;DHT22;52862;52.504;13.480;2024-03-08T01:10:44;5.20;99.90
51867;DHT22;52862;52.504;13.480;2024-03-08T01:13:10;3.10;99.90
51867;DHT22;52862;52.504;13.480;2024-03-08T01:15:37;3.00;99.90
51867;DHT22;52862;52.504;13.480;2024-03-08T01:18:07;3.10;99.90
51867;DHT22;52862;52.504;13.480;2024-03-08T01:20:34;4.50;99.90
51867;DHT22;52862;52.504;13.480;2024-03-08T01:23:01;3.00;99.90
51867;DHT22;52862;52.504;13.480;2024-03-08T01:25:28;2.90;99.90
51867;DHT22;52862;52.504;13.480;2024-03-08T01:27:54;2.90;99.90
51867;DHT22;52862;52.504;13.480;2024-03-08T01:30:21;2.80;99.90
51867;DHT22;52862;52.504;13.480;2024-03-08T01:32:47;4.70;99.90
51867;DHT22;52862;52.504;13.480;2024-03-08T01:35:15;4.30;99.90
51867;DHT22;52862;52.504;13.480;2024-03-08T01:37:42;2.90;99.90
51867;DHT22;52862;52.504;13.480;2024-03-08T01:40:09;2.80;99.90
51867;DHT22;52862;52.504;13.480;2024-03-08T01:42:35;2.80;99.90
51867;DHT22;52862;52.504;13.480;2024-03-08T01:45:04;2.80;99.90
51867;DHT22;52862;52.504;13.480;2024-03-08T01:47:32;2.80;99.90
51867;DHT22;52862;52.504;13.480;2024-03-08T01:49:59;2.80;99.90
51867;DHT22;52862;52.504;13.480;2024-03-08T01:52:27;2.80;99.90
51867;DHT22;52862;52.504;13.480;2024-03-08T01:54:55;2.90;99.90
51867;DHT22;52862;52.504;13.480;2024-03-08T01:57:22;2.80;99.90
51867;DHT22;52862;52.504;13.480;2024-03-08T01:59:48;2.70;99.90
51867;DHT22;52862;52.504;13.480;2024-03-08T02:02:18;2.70;99.90
51867;DHT22;52862;52.504;13.480;2024-03-08T02:04:45;4.50;99.90
51867;DHT22;52862;52.504;13.480;2024-03-08T02:07:12;2.70;99.90
51867;DHT22;52862;52.504;13.480;2024-03-08T02:09:38;2.60;99.90
51867;DHT22;52862;52.504;13.480;2024-03-08T02:12:07;4.90;99.90
51867;DHT22;52862;52.504;13.480;2024-03-08T02:14:34;2.50;99.90
51867;DHT22;52862;52.504;13.480;2024-03-08T02:17:01;2.50;99.90
51867;DHT22;52862;52.504;13.480;2024-03-08T02:19:27;2.40;99.90
51867;DHT22;52862;52.504;13.480;2024-03-08T02:21:55;3.90;99.90
51867;DHT22;52862;52.504;13.480;2024-03-08T02:24:22;2.40;99.90
51867;DHT22;52862;52.504;13.480;2024-03-08T02:26:49;2.50;99.90
51867;DHT22;52862;52.504;13.480;2024-03-08T02:29:16;2.50;99.90
51867;DHT22;52862;52.504;13.480;2024-03-08T02:31:43;2.40;99.90
51867;DHT22;52862;52.504;13.480;2024-03-08T02:34:10;2.40;99.90
51867;DHT22;52862;52.504;13.480;2024-03-08T02:36:36;2.80;99.90
51867;DHT22;52862;52.504;13.480;2024-03-08T02:39:04;2.40;99.90
51867;DHT22;52862;52.504;13.480;2024-03-08T02:41:31;2.40;99.90
51867;DHT22;52862;52.504;13.480;2024-03-08T02:43:58;2.40;99.90
51867;DHT22;52862;52.504;13.480;2024-03-08T02:46:26;2.50;99.90
51867;DHT22;52862;52.504;13.480;2024-03-08T02:48:52;2.40;99.90
51867;DHT22;52862;52.504;13.480;2024-03-08T02:51:19;2.40;99.90
51867;DHT22;52862;52.504;13.480;2024-03-08T02:53:46;2.50;99.90
51867;DHT22;52862;52.504;13.480;2024-03-08T02:56:15;2.40;99.90
51867;DHT22;52862;52.504;13.480;2024-03-08T02:58:42;0.30;99.90
51867;DHT22;52862;52.504;13.480;2024-03-08T03:01:09;2.70;99.90
51867;DHT22;52862;52.504;13.480;2024-03-08T03:03:36;2.30;99.90
51867;DHT22;52862;52.504;13.480;2024-03-08T03:06:03;2.30;99.90
51867;DHT22;52862;52.504;13.480;2024-03-08T03:08:30;2.30;99.90
51867;DHT22;52862;52.504;13.480;2024-03-08T03:10:56;4.70;99.90
51867;DHT22;52862;52.504;13.480;2024-03-08T03:13:24;2.20;99.90
51867;DHT22;52862;52.504;13.480;2024-03-08T03:15:50;2.20;99.90
51867;DHT22;52862;52.504;13.480;2024-03-08T03:18:17;2.20;99.90
51867;DHT22;52862;52.504;13.480;2024-03-08T03:20:47;2.70;99.90
51867;DHT22;52862;52.504;13.480;2024-03-08T03:23:14;1.70;99.90
51867;DHT22;52862;52.504;13.480;2024-03-08T03:25:41;2.10;99.90
51867;DHT22;52862;52.504;13.480;2024-03-08T03:28:07;2.10;99.90
51867;DHT22;52862;52.504;13.480;2024-03-08T03:30:37;2.10;99.90
51867;DHT22;52862;52.504;13.480;2024-03-08T03:33:05;2.10;99.90
51867;DHT22;52862;52.504;13.480;2024-03-08T03:35:33;2.30;99.90
51867;DHT22;52862;52.504;13.480;2024-03-08T03:38:00;3.10;99.90
51867;DHT22;52862;52.504;13.480;2024-03-08T03:40:33;2.10;99.90
51867;DHT22;52862;52.504;13.480;2024-03-08T03:42:59;2.00;99.90
51867;DHT22;52862;52.504;13.480;2024-03-08T03:45:26;1.80;99.90
51867;DHT22;52862;52.504;13.480;2024-03-08T03:47:53;2.10;99.90
51867;DHT22;52862;52.504;13.480;2024-03-08T03:50:20;2.00;99.90
51867;DHT22;52862;52.504;13.480;2024-03-08T03:52:47;2.10;99.90
51867;DHT22;52862;52.504;13.480;2024-03-08T03:55:13;1.70;99.90
51867;DHT22;52862;52.504;13.480;2024-03-08T03:57:40;2.10;99.90
51867;DHT22;52862;52.504;13.480;2024-03-08T04:00:08;2.10;99.90
51867;DHT22;52862;52.504;13.480;2024-03-08T04:02:37;2.10;99.90
51867;DHT22;52862;52.504;13.480;2024-03-08T04:05:06;2.00;99.90
51867;DHT22;52862;52.504;13.480;2024-03-08T04:07:33;2.00;99.90
51867;DHT22;52862;52.504;13.480;2024-03-08T04:10:00;2.20;99.90
51867;DHT22;52862;52.504;13.480;2024-03-08T04:12:26;4.20;99.90
51867;DHT22;52862;52.504;13.480;2024-03-08T04:14:55;2.00;99.90
51867;DHT22;52862;52.504;13.480;2024-03-08T04:17:22;2.00;99.90
51867;DHT22;52862;52.504;13.480;2024-03-08T04:19:50;2.00;99.90
51867;DHT22;52862;52.504;13.480;2024-03-08T04:22:17;1.90;99.90
51867;DHT22;52862;52.504;13.480;2024-03-08T04:24:44;3.10;99.90
51867;DHT22;52862;52.504;13.480;2024-03-08T04:27:10;1.90;99.90
51867;DHT22;52862;52.504;13.480;2024-03-08T04:29:37;2.40;99.90
51867;DHT22;52862;52.504;13.480;2024-03-08T04:32:05;1.80;99.90
51867;DHT22;52862;52.504;13.480;2024-03-08T04:34:32;1.80;99.90
51867;DHT22;52862;52.504;13.480;2024-03-08T04:37:00;1.70;99.90
51867;DHT22;52862;52.504;13.480;2024-03-08T04:39:27;1.80;99.90
51867;DHT22;52862;52.504;13.480;2024-03-08T04:41:55;1.60;99.90
51867;DHT22;52862;52.504;13.480;2024-03-08T04:44:24;1.60;99.90
51867;DHT22;52862;52.504;13.480;2024-03-08T04:46:50;1.60;99.90
51867;DHT22;52862;52.504;13.480;2024-03-08T04:49:17;2.50;99.90
51867;DHT22;52862;52.504;13.480;2024-03-08T04:51:43;1.90;99.90
51867;DHT22;52862;52.504;13.480;2024-03-08T04:54:11;1.60;99.90
51867;DHT22;52862;52.504;13.480;2024-03-08T04:56:39;1.80;99.90
51867;DHT22;52862;52.504;13.480;2024-03-08T04:59:05;1.60;99.90
51867;DHT22;52862;52.504;13.480;2024-03-08T05:01:33;2.70;99.90
51867;DHT22;52862;52.504;13.480;2024-03-08T05:04:02;1.50;99.90
51867;DHT22;52862;52.504;13.480;2024-03-08T05:06:32;1.40;99.90
51867;DHT22;52862;52.504;13.480;2024-03-08T05:08:59;1.10;99.90
51867;DHT22;52862;52.504;13.480;2024-03-08T05:11:26;3.50;99.90
51867;DHT22;52862;52.504;13.480;2024-03-08T05:13:53;4.10;99.90
51867;DHT22;52862;52.504;13.480;2024-03-08T05:16:21;1.50;99.90
51867;DHT22;52862;52.504;13.480;2024-03-08T05:18:48;1.50;99.90
51867;DHT22;52862;52.504;13.480;2024-03-08T05:21:15;1.50;99.90
51867;DHT22;52862;52.504;13.480;2024-03-08T05:23:46;2.30;99.90
51867;DHT22;52862;52.504;13.480;2024-03-08T05:26:13;1.40;99.90
51867;DHT22;52862;52.504;13.480;2024-03-08T05:28:40;1.40;99.90
51867;DHT22;52862;52.504;13.480;2024-03-08T05:31:07;1.40;99.90
51867;DHT22;52862;52.504;13.480;2024-03-08T05:33:34;1.40;99.90
51867;DHT22;52862;52.504;13.480;2024-03-08T05:36:01;1.40;99.90
51867;DHT22;52862;52.504;13.480;2024-03-08T05:38:28;1.40;99.90
51867;DHT22;52862;52.504;13.480;2024-03-08T05:40:54;0.90;99.90
51867;DHT22;52862;52.504;13.480;2024-03-08T05:43:21;1.40;99.90
51867;DHT22;52862;52.504;13.480;2024-03-08T05:45:47;1.40;99.90
51867;DHT22;52862;52.504;13.480;2024-03-08T05:48:15;1.80;99.90
51867;DHT22;52862;52.504;13.480;2024-03-08T05:50:43;3.00;99.90
51867;DHT22;52862;52.504;13.480;2024-03-08T05:53:10;1.50;99.90
51867;DHT22;52862;52.504;13.480;2024-03-08T05:55:36;2.60;99.90
51867;DHT22;52862;52.504;13.480;2024-03-08T05:58:03;1.60;99.90
51867;DHT22;52862;52.504;13.480;2024-03-08T06:00:30;1.60;99.90
51867;DHT22;52862;52.504;13.480;2024-03-08T06:02:57;3.10;99.90
51867;DHT22;52862;52.504;13.480;2024-03-08T06:05:25;1.60;99.90
51867;DHT22;52862;52.504;13.480;2024-03-08T06:07:51;1.60;99.90
51867;DHT22;52862;52.504;13.480;2024-03-08T06:10:19;2.30;99.90
51867;DHT22;52862;52.504;13.480;2024-03-08T06:12:46;1.60;99.90
51867;DHT22;52862;52.504;13.480;2024-03-08T06:15:12;1.90;99.90
51867;DHT22;52862;52.504;13.480;2024-03-08T06:17:40;1.70;99.90
51867;DHT22;52862;52.504;13.480;2024-03-08T06:20:08;1.70;99.90
51867;DHT22;52862;52.504;13.480;2024-03-08T06:22:37;1.70;99.90
51867;DHT22;52862;52.504;13.480;2024-03-08T06:25:05;2.90;99.90
51867;DHT22;52862;52.504;13.480;2024-03-08T06:27:32;1.70;99.90
51867;DHT22;52862;52.504;13.480;2024-03-08T06:30:00;2.60;99.90
51867;DHT22;52862;52.504;13.480;2024-03-08T06:32:26;3.50;99.90
51867;DHT22;52862;52.504;13.480;2024-03-08T06:34:53;1.90;99.90
51867;DHT22;52862;52.504;13.480;2024-03-08T06:37:20;2.00;99.90
51867;DHT22;52862;52.504;13.480;2024-03-08T06:39:48;2.00;99.90
51867;DHT22;52862;52.504;13.480;2024-03-08T06:42:16;2.80;99.90
51867;DHT22;52862;52.504;13.480;2024-03-08T06:44:43;2.10;99.90
51867;DHT22;52862;52.504;13.480;2024-03-08T06:47:15;2.20;99.90
51867;DHT22;52862;52.504;13.480;2024-03-08T06:49:42;2.20;99.90
51867;DHT22;52862;52.504;13.480;2024-03-08T06:52:08;3.10;99.90
51867;DHT22;52862;52.504;13.480;2024-03-08T06:54:35;2.40;99.90
51867;DHT22;52862;52.504;13.480;2024-03-08T06:57:03;2.40;99.90
51867;DHT22;52862;52.504;13.480;2024-03-08T06:59:29;2.50;99.90
51867;DHT22;52862;52.504;13.480;2024-03-08T07:01:56;2.60;99.90
51867;DHT22;52862;52.504;13.480;2024-03-08T07:04:23;2.60;99.90
51867;DHT22;52862;52.504;13.480;2024-03-08T07:06:52;3.30;99.90
51867;DHT22;52862;52.504;13.480;2024-03-08T07:09:19;2.70;99.90
51867;DHT22;52862;52.504;13.480;2024-03-08T07:11:46;4.50;99.90
51867;DHT22;52862;52.504;13.480;2024-03-08T07:14:13;3.10;99.90
51867;DHT22;52862;52.504;13.480;2024-03-08T07:16:41;4.30;99.90
51867;DHT22;52862;52.504;13.480;2024-03-08T07:19:07;3.30;99.90
51867;DHT22;52862;52.504;13.480;2024-03-08T07:21:34;3.30;99.90
51867;DHT22;52862;52.504;13.480;2024-03-08T07:24:01;3.40;99.90
51867;DHT22;52862;52.504;13.480;2024-03-08T07:26:47;4.20;99.90
51867;DHT22;52862;52.504;13.480;2024-03-08T07:29:16;3.50;99.90
51867;DHT22;52862;52.504;13.480;2024-03-08T07:31:43;3.70;99.90
51867;DHT22;52862;52.504;13.480;2024-03-08T07:34:16;4.40;99.90
51867;DHT22;52862;52.504;13.480;2024-03-08T07:36:43;4.00;99.90
51867;DHT22;52862;52.504;13.480;2024-03-08T07:39:10;4.30;99.90
51867;DHT22;52862;52.504;13.480;2024-03-08T07:41:38;4.20;99.90
51867;DHT22;52862;52.504;13.480;2024-03-08T07:44:06;4.50;99.90
51867;DHT22;52862;52.504;13.480;2024-03-08T07:46:33;5.40;99.90
51867;DHT22;52862;52.504;13.480;2024-03-08T07:49:00;4.70;99.90
51867;DHT22;52862;52.504;13.480;2024-03-08T07:51:27;4.80;99.90
51867;DHT22;52862;52.504;13.480;2024-03-08T07:53:53;4.80;99.90
51867;DHT22;52862;52.504;13.480;2024-03-08T07:56:21;4.80;99.90
51867;DHT22;52862;52.504;13.480;2024-03-08T07:58:47;5.10;99.90
51867;DHT22;52862;52.504;13.480;2024-03-08T08:01:16;4.90;99.90
51867;DHT22;52862;52.504;13.480;2024-03-08T08:03:44;4.90;99.90
51867;DHT22;52862;52.504;13.480;2024-03-08T08:06:11;5.00;99.90
51867;DHT22;52862;52.504;13.480;2024-03-08T08:08:42;5.20;99.90
51867;DHT22;52862;52.504;13.480;2024-03-08T08:11:08;5.30;99.90
51867;DHT22;52862;52.504;13.480;2024-03-08T08:13:35;5.70;99.90
51867;DHT22;52862;52.504;13.480;2024-03-08T08:16:03;7.70;99.90
51867;DHT22;52862;52.504;13.480;2024-03-08T08:18:29;5.60;99.90
51867;DHT22;52862;52.504;13.480;2024-03-08T08:20:57;5.70;99.90
51867;DHT22;52862;52.504;13.480;2024-03-08T08:23:23;5.70;99.90
51867;DHT22;52862;52.504;13.480;2024-03-08T08:25:50;6.00;99.90
51867;DHT22;52862;52.504;13.480;2024-03-08T08:28:16;6.00;99.90
51867;DHT22;52862;52.504;13.480;2024-03-08T08:30:44;6.10;99.90
51867;DHT22;52862;52.504;13.480;2024-03-08T08:33:11;6.00;99.90
51867;DHT22;52862;52.504;13.480;2024-03-08T08:35:39;6.00;99.90
51867;DHT22;52862;52.504;13.480;2024-03-08T08:38:06;6.20;99.90
51867;DHT22;52862;52.504;13.480;2024-03-08T08:40:33;6.20;99.90
51867;DHT22;52862;52.504;13.480;2024-03-08T08:43:02;6.50;99.90
51867;DHT22;52862;52.504;13.480;2024-03-08T08:45:30;6.50;99.90
51867;DHT22;52862;52.504;13.480;2024-03-08T08:47:57;6.50;99.90
51867;DHT22;52862;52.504;13.480;2024-03-08T08:50:27;6.60;99.90
51867;DHT22;52862;52.504;13.480;2024-03-08T08:52:54;7.00;99.90
51867;DHT22;52862;52.504;13.480;2024-03-08T08:55:22;6.90;99.90
51867;DHT22;52862;52.504;13.480;2024-03-08T08:57:51;7.20;99.90
51867;DHT22;52862;52.504;13.480;2024-03-08T09:00:18;7.20;99.90
51867;DHT22;52862;52.504;13.480;2024-03-08T09:02:46;7.30;99.90
51867;DHT22;52862;52.504;13.480;2024-03-08T09:05:13;7.50;99.90
51867;DHT22;52862;52.504;13.480;2024-03-08T09:07:40;7.60;99.90
51867;DHT22;52862;52.504;13.480;2024-03-08T09:10:07;7.50;99.90
51867;DHT22;52862;52.504;13.480;2024-03-08T09:12:44;7.30;99.90
51867;DHT22;52862;52.504;13.480;2024-03-08T09:15:11;7.80;99.90
51867;DHT22;52862;52.504;13.480;2024-03-08T09:17:39;7.80;99.90
51867;DHT22;52862;52.504;13.480;2024-03-08T09:20:06;7.90;99.90
51867;DHT22;52862;52.504;13.480;2024-03-08T09:22:33;8.00;99.90
51867;DHT22;52862;52.504;13.480;2024-03-08T09:25:00;8.10;99.90
51867;DHT22;52862;52.504;13.480;2024-03-08T09:27:27;8.10;99.90
51867;DHT22;52862;52.504;13.480;2024-03-08T09:29:54;8.20;99.90
51867;DHT22;52862;52.504;13.480;2024-03-08T09:32:21;8.10;99.90
51867;DHT22;52862;52.504;13.480;2024-03-08T09:34:48;8.20;99.90
51867;DHT22;52862;52.504;13.480;2024-03-08T09:37:16;8.90;99.90
51867;DHT22;52862;52.504;13.480;2024-03-08T09:39:43;8.30;99.90
51867;DHT22;52862;52.504;13.480;2024-03-08T09:42:10;8.20;99.90
51867;DHT22;52862;52.504;13.480;2024-03-08T09:44:44;8.60;99.90
51867;DHT22;52862;52.504;13.480;2024-03-08T09:47:13;8.30;99.90
51867;DHT22;52862;52.504;13.480;2024-03-08T09:49:40;8.60;99.90
51867;DHT22;52862;52.504;13.480;2024-03-08T09:52:07;8.30;99.90
51867;DHT22;52862;52.504;13.480;2024-03-08T09:54:34;8.40;99.90
51867;DHT22;52862;52.504;13.480;2024-03-08T09:57:02;8.60;99.90
51867;DHT22;52862;52.504;13.480;2024-03-08T09:59:30;8.70;99.90
51867;DHT22;52862;52.504;13.480;2024-03-08T10:02:14;8.70;99.90
51867;DHT22;52862;52.504;13.480;2024-03-08T10:04:42;8.70;99.90
51867;DHT22;52862;52.504;13.480;2024-03-08T10:07:09;9.00;99.90
51867;DHT22;52862;52.504;13.480;2024-03-08T10:09:37;9.00;99.90
51867;DHT22;52862;52.504;13.480;2024-03-08T10:12:04;8.90;99.90
51867;DHT22;52862;52.504;13.480;2024-03-08T10:14:31;8.90;99.90
51867;DHT22;52862;52.504;13.480;2024-03-08T10:16:58;8.80;99.90
51867;DHT22;52862;52.504;13.480;2024-03-08T10:19:26;8.90;99.90
51867;DHT22;52862;52.504;13.480;2024-03-08T10:21:53;8.80;99.90
51867;DHT22;52862;52.504;13.480;2024-03-08T10:24:20;8.90;99.90
51867;DHT22;52862;52.504;13.480;2024-03-08T10:26:47;8.70;99.90
51867;DHT22;52862;52.504;13.480;2024-03-08T10:29:14;8.50;99.90
51867;DHT22;52862;52.504;13.480;2024-03-08T10:31:43;8.60;99.90
51867;DHT22;52862;52.504;13.480;2024-03-08T10:34:10;8.60;99.90
51867;DHT22;52862;52.504;13.480;2024-03-08T10:36:39;8.40;99.90
51867;DHT22;52862;52.504;13.480;2024-03-08T10:39:14;8.60;99.90
51867;DHT22;52862;52.504;13.480;2024-03-08T10:41:45;8.70;99.90
51867;DHT22;52862;52.504;13.480;2024-03-08T10:44:26;8.80;99.90
51867;DHT22;52862;52.504;13.480;2024-03-08T10:47:00;9.30;99.90
51867;DHT22;52862;52.504;13.480;2024-03-08T10:49:31;9.10;99.90
51867;DHT22;52862;52.504;13.480;2024-03-08T10:52:03;8.80;99.90
51867;DHT22;52862;52.504;13.480;2024-03-08T10:54:30;8.60;99.90
51867;DHT22;52862;52.504;13.480;2024-03-08T10:56:59;8.70;99.90
51867;DHT22;52862;52.504;13.480;2024-03-08T10:59:27;9.30;99.90
51867;DHT22;52862;52.504;13.480;2024-03-08T11:01:55;8.40;99.90
51867;DHT22;52862;52.504;13.480;2024-03-08T11:04:22;8.50;99.90
51867;DHT22;52862;52.504;13.480;2024-03-08T11:06:51;8.40;99.90
51867;DHT22;52862;52.504;13.480;2024-03-08T11:09:28;8.60;99.90
51867;DHT22;52862;52.504;13.480;2024-03-08T11:12:24;8.70;99.90
51867;DHT22;52862;52.504;13.480;2024-03-08T11:14:52;8.80;99.90
51867;DHT22;52862;52.504;13.480;2024-03-08T11:20:11;9.10;99.90
51867;DHT22;52862;52.504;13.480;2024-03-08T11:22:42;9.10;99.90
51867;DHT22;52862;52.504;13.480;2024-03-08T11:25:33;9.10;99.90
51867;DHT22;52862;52.504;13.480;2024-03-08T11:28:08;9.10;99.90
51867;DHT22;52862;52.504;13.480;2024-03-08T11:30:36;9.00;99.90
51867;DHT22;52862;52.504;13.480;2024-03-08T11:33:04;8.90;99.90
51867;DHT22;52862;52.504;13.480;2024-03-08T11:35:31;8.80;99.90
51867;DHT22;52862;52.504;13.480;2024-03-08T11:37:59;8.60;99.90
51867;DHT22;52862;52.504;13.480;2024-03-08T11:40:26;8.60;99.90
51867;DHT22;52862;52.504;13.480;2024-03-08T11:42:54;8.80;99.90
51867;DHT22;52862;52.504;13.480;2024-03-08T11:45:21;9.10;99.90
51867;DHT22;52862;52.504;13.480;2024-03-08T11:47:48;9.20;99.90
51867;DHT22;52862;52.504;13.480;2024-03-08T11:50:17;9.10;99.90
51867;DHT22;52862;52.504;13.480;2024-03-08T11:52:44;9.20;99.90
51867;DHT22;52862;52.504;13.480;2024-03-08T11:55:12;9.10;99.90
51867;DHT22;52862;52.504;13.480;2024-03-08T11:57:39;9.10;99.90
51867;DHT22;52862;52.504;13.480;2024-03-08T12:00:15;9.30;99.90
51867;DHT22;52862;52.504;13.480;2024-03-08T12:03:01;9.40;99.90
51867;DHT22;52862;52.504;13.480;2024-03-08T12:05:28;9.40;99.90
51867;DHT22;52862;52.504;13.480;2024-03-08T12:07:57;9.40;99.90
51867;DHT22;52862;52.504;13.480;2024-03-08T12:10:24;9.50;99.90
51867;DHT22;52862;52.504;13.480;2024-03-08T12:12:53;10.70;99.90
51867;DHT22;52862;52.504;13.480;2024-03-08T12:15:22;9.50;99.90
51867;DHT22;52862;52.504;13.480;2024-03-08T12:17:50;9.90;99.90
51867;DHT22;52862;52.504;13.480;2024-03-08T12:20:18;9.50;99.90
51867;DHT22;52862;52.504;13.480;2024-03-08T12:22:45;9.40;99.90
51867;DHT22;52862;52.504;13.480;2024-03-08T12:25:12;9.80;99.90
51867;DHT22;52862;52.504;13.480;2024-03-08T12:27:39;9.90;99.90
51867;DHT22;52862;52.504;13.480;2024-03-08T12:30:22;10.40;99.90
51867;DHT22;52862;52.504;13.480;2024-03-08T12:32:54;9.80;99.90
51867;DHT22;52862;52.504;13.480;2024-03-08T12:35:23;10.00;99.90
51867;DHT22;52862;52.504;13.480;2024-03-08T12:37:52;10.10;99.90
51867;DHT22;52862;52.504;13.480;2024-03-08T12:40:19;10.20;99.90
51867;DHT22;52862;52.504;13.480;2024-03-08T12:42:51;10.00;99.90
51867;DHT22;52862;52.504;13.480;2024-03-08T12:45:18;10.10;99.90
51867;DHT22;52862;52.504;13.480;2024-03-08T12:47:45;10.30;99.70
51867;DHT22;52862;52.504;13.480;2024-03-08T12:50:11;12.50;97.00
51867;DHT22;52862;52.504;13.480;2024-03-08T12:52:38;17.10;90.00
51867;DHT22;52862;52.504;13.480;2024-03-08T12:55:05;21.30;72.40
51867;DHT22;52862;52.504;13.480;2024-03-08T12:57:34;21.20;63.80
51867;DHT22;52862;52.504;13.480;2024-03-08T13:00:01;22.60;60.10
51867;DHT22;52862;52.504;13.480;2024-03-08T13:02:28;21.90;58.50
51867;DHT22;52862;52.504;13.480;2024-03-08T13:04:57;23.10;56.80
51867;DHT22;52862;52.504;13.480;2024-03-08T13:07:24;23.40;56.00
51867;DHT22;52862;52.504;13.480;2024-03-08T13:09:52;24.40;54.70
51867;DHT22;52862;52.504;13.480;2024-03-08T13:12:18;25.30;52.40
51867;DHT22;52862;52.504;13.480;2024-03-08T13:14:46;26.20;51.20
51867;DHT22;52862;52.504;13.480;2024-03-08T13:17:12;25.80;50.00
51867;DHT22;52862;52.504;13.480;2024-03-08T13:19:39;26.20;49.20
51867;DHT22;52862;52.504;13.480;2024-03-08T13:22:08;25.30;49.30
51867;DHT22;52862;52.504;13.480;2024-03-08T13:24:39;25.30;48.90
51867;DHT22;52862;52.504;13.480;2024-03-08T13:27:07;24.90;48.50
51867;DHT22;52862;52.504;13.480;2024-03-08T13:29:46;25.80;48.90
51867;DHT22;52862;52.504;13.480;2024-03-08T13:32:14;26.90;47.80
51867;DHT22;52862;52.504;13.480;2024-03-08T13:34:41;27.60;46.70
51867;DHT22;52862;52.504;13.480;2024-03-08T13:37:09;26.10;46.20
51867;DHT22;52862;52.504;13.480;2024-03-08T13:39:36;25.00;48.60
51867;DHT22;52862;52.504;13.480;2024-03-08T13:42:07;26.20;48.20
51867;DHT22;52862;52.504;13.480;2024-03-08T13:44:35;26.80;46.90
51867;DHT22;52862;52.504;13.480;2024-03-08T13:47:03;27.10;46.30
51867;DHT22;52862;52.504;13.480;2024-03-08T13:49:30;28.00;45.70
51867;DHT22;52862;52.504;13.480;2024-03-08T13:51:57;27.30;45.10
51867;DHT22;52862;52.504;13.480;2024-03-08T13:54:25;25.70;45.70
51867;DHT22;52862;52.504;13.480;2024-03-08T13:56:53;24.60;46.30
51867;DHT22;52862;52.504;13.480;2024-03-08T13:59:20;25.20;46.70
51867;DHT22;52862;52.504;13.480;2024-03-08T14:01:48;24.10;46.10
51867;DHT22;52862;52.504;13.480;2024-03-08T14:04:15;25.00;46.70
51867;DHT22;52862;52.504;13.480;2024-03-08T14:06:43;26.60;46.10
51867;DHT22;52862;52.504;13.480;2024-03-08T14:09:11;27.50;45.50
51867;DHT22;52862;52.504;13.480;2024-03-08T14:11:43;26.00;44.70
51867;DHT22;52862;52.504;13.480;2024-03-08T14:14:10;24.60;46.80
51867;DHT22;52862;52.504;13.480;2024-03-08T14:16:38;25.00;46.80
51867;DHT22;52862;52.504;13.480;2024-03-08T14:19:05;25.80;46.80
51867;DHT22;52862;52.504;13.480;2024-03-08T14:21:36;26.70;46.10
51867;DHT22;52862;52.504;13.480;2024-03-08T14:24:05;26.90;44.40
51867;DHT22;52862;52.504;13.480;2024-03-08T14:26:32;26.50;45.50
51867;DHT22;52862;52.504;13.480;2024-03-08T14:29:00;27.60;45.40
51867;DHT22;52862;52.504;13.480;2024-03-08T14:31:27;28.40;44.70
51867;DHT22;52862;52.504;13.480;2024-03-08T14:33:54;28.20;44.30
51867;DHT22;52862;52.504;13.480;2024-03-08T14:36:23;28.00;44.00
51867;DHT22;52862;52.504;13.480;2024-03-08T14:38:51;27.70;44.00
51867;DHT22;52862;52.504;13.480;2024-03-08T14:41:18;27.80;44.10
51867;DHT22;52862;52.504;13.480;2024-03-08T14:43:45;29.10;43.70
51867;DHT22;52862;52.504;13.480;2024-03-08T14:46:14;30.10;42.90
51867;DHT22;52862;52.504;13.480;2024-03-08T14:48:43;30.80;41.80
51867;DHT22;52862;52.504;13.480;2024-03-08T14:51:10;30.80;40.90
51867;DHT22;52862;52.504;13.480;2024-03-08T14:53:40;30.30;41.10
51867;DHT22;52862;52.504;13.480;2024-03-08T14:56:07;29.30;41.50
51867;DHT22;52862;52.504;13.480;2024-03-08T14:58:34;29.10;41.50
51867;DHT22;52862;52.504;13.480;2024-03-08T15:01:01;28.20;40.90
51867;DHT22;52862;52.504;13.480;2024-03-08T15:03:28;26.00;41.90
51867;DHT22;52862;52.504;13.480;2024-03-08T15:05:55;23.50;44.70
51867;DHT22;52862;52.504;13.480;2024-03-08T15:08:22;20.20;48.20
51867;DHT22;52862;52.504;13.480;2024-03-08T15:10:50;17.20;52.60
51867;DHT22;52862;52.504;13.480;2024-03-08T15:13:20;15.20;57.20
51867;DHT22;52862;52.504;13.480;2024-03-08T15:15:53;13.40;60.20
51867;DHT22;52862;52.504;13.480;2024-03-08T15:18:23;12.50;62.90
51867;DHT22;52862;52.504;13.480;2024-03-08T15:20:52;12.00;65.60
51867;DHT22;52862;52.504;13.480;2024-03-08T15:23:19;11.50;67.10
51867;DHT22;52862;52.504;13.480;2024-03-08T15:25:47;11.20;68.50
51867;DHT22;52862;52.504;13.480;2024-03-08T15:28:15;11.10;69.40
51867;DHT22;52862;52.504;13.480;2024-03-08T15:30:43;10.80;70.10
51867;DHT22;52862;52.504;13.480;2024-03-08T15:33:15;10.90;70.40
51867;DHT22;52862;52.504;13.480;2024-03-08T15:35:50;10.80;71.30